Time;durP1;ratioP1;P1;durP2;ratioP2;P2;SDS_P1;SDS_P2;PMS_P1;PMS_P2;Temp;Humidity;BMP_temperature;BMP_pressure;BME280_temperature;BME280_humidity;BME280_pressure;Samples;Min_cycle;Max_cycle;Signal;HPM_P1;HPM_P2
2022/04/11 00:01:52;;;;;;;14.32;9.02;;;;;;;5.06;61.52;101911.56;5026156;28;20493;-61
2022/04/11 00:04:18;;;;;;;13.57;8.25;;;;;;;5.02;61.88;101911.75;5025840;28;20030;-61
2022/04/11 00:06:43;;;;;;;12.88;7.38;;;;;;;4.99;62.00;101901.59;5026002;28;20029;-61
2022/04/11 00:09:08;;;;;;;8.55;5.97;;;;;;;4.97;62.53;101898.25;5026216;28;20470;-63
2022/04/11 00:11:34;;;;;;;9.82;5.32;;;;;;;4.94;61.95;101898.38;5025674;28;20040;-61
2022/04/11 00:14:01;;;;;;;7.78;4.93;;;;;;;4.97;61.98;101900.81;5025904;28;20473;-61
2022/04/11 00:16:27;;;;;;;9.43;5.35;;;;;;;4.98;62.13;101897.34;5025885;28;20091;-61
2022/04/11 00:18:52;;;;;;;9.40;5.50;;;;;;;4.94;62.10;101888.94;5025979;28;20065;-61
2022/04/11 00:21:17;;;;;;;7.40;5.13;;;;;;;4.92;62.55;101887.31;5025829;28;20018;-61
2022/04/11 00:23:43;;;;;;;8.95;5.30;;;;;;;4.93;62.09;101891.53;5025711;28;20384;-61
2022/04/11 00:26:08;;;;;;;9.65;5.13;;;;;;;4.91;62.28;101883.06;5025990;28;20037;-63
2022/04/11 00:28:33;;;;;;;9.25;5.50;;;;;;;4.91;62.91;101883.06;5026227;28;20059;-62
2022/04/11 00:30:59;;;;;;;9.52;5.72;;;;;;;4.90;62.57;101886.53;5025972;28;20036;-60
2022/04/11 00:33:24;;;;;;;9.00;5.40;;;;;;;4.86;62.93;101879.84;5025802;28;20392;-61
2022/04/11 00:35:49;;;;;;;8.90;5.90;;;;;;;4.86;62.37;101875.53;5025708;28;20473;-61
2022/04/11 00:38:14;;;;;;;9.93;5.90;;;;;;;4.85;62.93;101878.19;5020108;28;20029;-61
2022/04/11 00:40:40;;;;;;;8.35;5.40;;;;;;;4.80;62.54;101874.06;5024205;28;20048;-62
2022/04/11 00:43:05;;;;;;;11.98;6.35;;;;;;;4.82;62.93;101873.16;5026135;28;20033;-62
2022/04/11 00:45:31;;;;;;;9.80;5.70;;;;;;;4.82;62.64;101868.00;5025209;28;20034;-61
2022/04/11 00:47:56;;;;;;;9.68;5.88;;;;;;;4.78;63.00;101860.44;5025016;28;20458;-62
2022/04/11 00:50:22;;;;;;;8.93;5.95;;;;;;;4.78;63.10;101863.00;5024141;28;20060;-62
2022/04/11 00:52:52;;;;;;;10.30;6.35;;;;;;;4.77;63.23;101858.78;5025661;28;20062;-62
2022/04/11 00:55:20;;;;;;;10.20;6.07;;;;;;;4.77;63.16;101850.22;5025498;28;20120;-61
2022/04/11 00:57:47;;;;;;;8.73;6.00;;;;;;;4.75;63.08;101855.41;5025616;28;20057;-61
2022/04/11 01:00:13;;;;;;;8.80;6.50;;;;;;;4.63;63.78;101832.78;5025694;28;20628;-61
2022/04/11 01:02:39;;;;;;;8.68;6.15;;;;;;;4.68;63.46;101841.16;5025047;28;20512;-61
2022/04/11 01:05:09;;;;;;;10.15;6.57;;;;;;;4.71;63.73;101846.19;5025636;28;20091;-61
2022/04/11 01:07:36;;;;;;;10.50;6.32;;;;;;;4.70;63.47;101839.38;5023760;28;20044;-61
2022/04/11 01:10:06;;;;;;;10.23;6.82;;;;;;;4.70;63.46;101834.22;5025634;28;20484;-61
2022/04/11 01:12:32;;;;;;;10.13;6.65;;;;;;;4.72;63.20;101847.00;5025154;28;20029;-61
2022/04/11 01:14:57;;;;;;;9.48;6.75;;;;;;;4.71;63.36;101841.03;5025926;28;20374;-63
2022/04/11 01:17:36;;;;;;;10.52;6.80;;;;;;;4.72;62.91;101837.56;5025066;28;20025;-62
2022/04/11 01:20:12;;;;;;;11.60;7.28;;;;;;;4.70;63.46;101836.81;5025581;28;20545;-61
2022/04/11 01:22:39;;;;;;;10.40;6.75;;;;;;;4.66;63.66;101837.81;5025515;28;20029;-62
2022/04/11 01:25:04;;;;;;;11.02;6.28;;;;;;;4.65;63.51;101825.88;5026343;28;20099;-64
2022/04/11 01:27:31;;;;;;;10.43;6.70;;;;;;;4.62;63.69;101831.13;5028546;28;20350;-63
2022/04/11 01:29:57;;;;;;;9.93;7.13;;;;;;;4.59;64.00;101826.13;5029220;28;20503;-62
2022/04/11 01:32:22;;;;;;;9.63;6.93;;;;;;;4.66;63.94;101835.25;5028520;28;20025;-62
2022/04/11 01:34:47;;;;;;;12.10;6.65;;;;;;;4.63;64.12;101837.94;5028885;28;20108;-62
2022/04/11 01:37:13;;;;;;;9.95;7.13;;;;;;;4.60;63.73;101830.34;5028822;28;20029;-61
2022/04/11 01:39:38;;;;;;;11.70;7.32;;;;;;;4.66;63.86;101837.81;5028395;28;20603;-63
2022/04/11 01:42:04;;;;;;;11.52;7.47;;;;;;;4.63;63.93;101843.06;5028942;28;20035;-61
2022/04/11 01:44:29;;;;;;;10.45;7.60;;;;;;;4.65;63.76;101841.28;5027159;28;20041;-61
2022/04/11 01:46:54;;;;;;;11.35;7.40;;;;;;;4.64;63.44;101849.88;5028304;28;20033;-62
2022/04/11 01:49:20;;;;;;;11.70;7.32;;;;;;;4.65;63.64;101845.59;5028595;28;20025;-62
2022/04/11 01:51:45;;;;;;;9.75;7.20;;;;;;;4.63;63.65;101840.50;5029284;28;20108;-61
2022/04/11 01:54:10;;;;;;;11.10;7.60;;;;;;;4.54;64.21;101838.31;5029047;28;20025;-62
2022/04/11 01:56:36;;;;;;;9.52;7.22;;;;;;;4.50;64.76;101831.63;5026666;28;20462;-61
2022/04/11 01:59:01;;;;;;;10.93;7.65;;;;;;;4.47;64.84;101842.88;5028436;28;20087;-61
2022/04/11 02:01:26;;;;;;;10.48;7.20;;;;;;;4.43;64.88;101832.75;5028004;28;20033;-63
2022/04/11 02:03:52;;;;;;;9.98;7.53;;;;;;;4.37;64.78;101831.28;5028528;28;20064;-63
2022/04/11 02:06:17;;;;;;;10.32;7.60;;;;;;;4.40;65.09;101830.31;5028766;28;20040;-61
2022/04/11 02:08:42;;;;;;;10.48;7.60;;;;;;;4.34;64.58;101817.72;5021367;28;20021;-63
2022/04/11 02:11:08;;;;;;;10.70;7.90;;;;;;;4.39;65.11;101828.63;5028080;28;20385;-62
2022/04/11 02:13:33;;;;;;;10.23;8.13;;;;;;;4.34;65.06;101828.81;5027848;28;20041;-61
2022/04/11 02:15:59;;;;;;;10.90;8.30;;;;;;;4.36;64.74;101831.31;5026241;28;20377;-63
2022/04/11 02:18:24;;;;;;;11.43;8.10;;;;;;;4.39;64.79;101833.78;5027647;28;20473;-61
2022/04/11 02:20:50;;;;;;;14.90;8.80;;;;;;;4.34;65.02;101827.97;5028083;28;20470;-61
2022/04/11 02:23:15;;;;;;;11.63;8.40;;;;;;;4.34;64.73;101830.56;5027988;28;20049;-63
2022/04/11 02:25:40;;;;;;;12.68;8.70;;;;;;;4.33;64.99;101828.88;5026247;28;20422;-61
2022/04/11 02:28:06;;;;;;;12.13;9.15;;;;;;;4.25;65.21;101827.47;5028149;28;20033;-61
2022/04/11 02:30:31;;;;;;;11.57;8.93;;;;;;;4.29;64.83;101837.59;5027350;28;20025;-63
2022/04/11 02:32:57;;;;;;;10.40;8.40;;;;;;;4.28;65.41;101836.75;5028021;28;20087;-61
2022/04/11 02:35:23;;;;;;;10.27;8.50;;;;;;;4.23;65.58;101834.38;5027856;28;20025;-61
2022/04/11 02:37:48;;;;;;;10.48;8.50;;;;;;;4.17;66.35;101832.03;5028192;28;20042;-62
2022/04/11 02:40:14;;;;;;;12.07;9.27;;;;;;;4.18;66.66;101841.41;5027941;28;20110;-61
2022/04/11 02:42:44;;;;;;;10.25;8.30;;;;;;;4.15;66.43;101833.84;5027349;28;20143;-61
2022/04/11 02:45:11;;;;;;;12.43;8.98;;;;;;;4.11;66.30;101829.72;5010128;28;20033;-61
2022/04/11 02:47:36;;;;;;;11.93;8.60;;;;;;;4.08;66.47;101824.72;5023138;28;20380;-62
2022/04/11 02:50:02;;;;;;;10.63;8.70;;;;;;;4.13;66.41;101833.06;5024253;28;20535;-62
2022/04/11 02:52:29;;;;;;;11.27;8.93;;;;;;;4.09;66.49;101821.25;5027363;28;20478;-62
2022/04/11 02:54:54;;;;;;;10.75;8.63;;;;;;;4.07;66.33;101820.47;5027855;28;20523;-61
2022/04/11 02:57:19;;;;;;;13.90;8.98;;;;;;;4.09;65.90;101823.81;5027130;28;20029;-61
2022/04/11 02:59:45;;;;;;;11.20;8.70;;;;;;;4.11;66.41;101829.72;5027556;28;20021;-61
2022/04/11 03:02:10;;;;;;;10.25;8.60;;;;;;;4.07;66.27;101817.91;5027531;28;20060;-61
2022/04/11 03:04:35;;;;;;;10.48;8.77;;;;;;;4.08;66.36;101814.44;5026997;28;20052;-63
2022/04/11 03:07:01;;;;;;;12.60;9.55;;;;;;;4.06;66.24;101817.94;5027128;28;20108;-62
2022/04/11 03:09:26;;;;;;;12.10;9.50;;;;;;;4.08;66.45;101814.44;5027306;28;21032;-61
2022/04/11 03:11:51;;;;;;;12.55;9.32;;;;;;;3.95;67.05;101808.09;5026854;28;20091;-61
2022/04/11 03:14:16;;;;;;;10.95;8.88;;;;;;;3.91;67.03;101809.13;5027299;28;20025;-61
2022/04/11 03:16:42;;;;;;;11.75;9.23;;;;;;;3.96;67.55;101825.19;5026916;28;20108;-62
2022/04/11 03:19:08;;;;;;;12.23;9.43;;;;;;;3.93;67.76;101815.03;5027151;28;20361;-61
2022/04/11 03:21:34;;;;;;;12.55;8.70;;;;;;;3.88;67.32;101811.78;5027038;28;20036;-61
2022/04/11 03:23:59;;;;;;;12.50;9.55;;;;;;;3.84;67.10;101815.34;5026732;28;20029;-61
2022/04/11 03:26:24;;;;;;;11.15;9.20;;;;;;;3.77;67.28;101804.47;5026549;28;20026;-61
2022/04/11 03:28:50;;;;;;;12.63;9.73;;;;;;;3.78;67.54;101815.59;5026972;28;20033;-61
2022/04/11 03:31:15;;;;;;;11.48;9.43;;;;;;;3.75;67.29;101805.44;5026795;28;20029;-60
2022/04/11 03:33:41;;;;;;;12.23;9.80;;;;;;;3.71;67.32;101805.56;5026647;28;20033;-61
2022/04/11 03:36:06;;;;;;;11.75;9.90;;;;;;;3.75;67.37;101808.00;5026823;28;20026;-63
2022/04/11 03:38:31;;;;;;;14.95;10.40;;;;;;;3.73;66.73;101811.47;5024318;28;20366;-62
2022/04/11 03:40:57;;;;;;;11.43;9.85;;;;;;;3.68;67.43;101815.94;5006664;28;20048;-62
2022/04/11 03:43:22;;;;;;;14.30;10.45;;;;;;;3.64;68.23;101814.38;5006766;28;20029;-61
2022/04/11 03:45:47;;;;;;;11.32;9.88;;;;;;;3.61;68.09;101819.63;5008401;28;20029;-61
2022/04/11 03:48:13;;;;;;;12.10;10.30;;;;;;;3.60;68.03;101820.50;5025423;28;20029;-61
2022/04/11 03:50:39;;;;;;;11.63;10.20;;;;;;;3.60;68.15;101812.81;5022531;28;20017;-61
2022/04/11 03:53:04;;;;;;;11.68;10.00;;;;;;;3.60;67.90;101814.53;5007042;28;20029;-62
2022/04/11 03:55:30;;;;;;;13.07;10.52;;;;;;;3.56;68.91;101811.25;5006564;28;20025;-63
2022/04/11 03:57:55;;;;;;;11.45;9.82;;;;;;;3.58;68.31;101813.78;5008420;28;20436;-61
2022/04/11 04:00:20;;;;;;;11.57;10.02;;;;;;;3.61;68.12;101817.06;5007845;28;20080;-61
2022/04/11 04:02:46;;;;;;;12.15;10.48;;;;;;;3.59;68.05;101811.13;5006436;28;20033;-62
2022/04/11 04:05:11;;;;;;;11.88;10.00;;;;;;;3.61;68.32;101816.22;5007622;28;20017;-61
2022/04/11 04:07:37;;;;;;;13.70;10.80;;;;;;;3.57;68.44;101805.25;5006847;28;20489;-61
2022/04/11 04:10:06;;;;;;;15.00;10.70;;;;;;;3.56;68.79;101805.31;5006668;28;20025;-61
2022/04/11 04:12:31;;;;;;;13.15;10.65;;;;;;;3.55;68.20;101808.72;5006802;28;20111;-60
2022/04/11 04:14:57;;;;;;;13.23;10.52;;;;;;;3.54;68.37;101818.16;5006575;28;20500;-61
2022/04/11 04:17:22;;;;;;;14.32;10.35;;;;;;;3.51;68.53;101815.72;5010447;28;20037;-61
2022/04/11 04:19:48;;;;;;;13.23;10.45;;;;;;;3.53;68.33;101810.53;5021348;28;20202;-60
2022/04/11 04:22:14;;;;;;;12.23;10.15;;;;;;;3.50;68.75;101808.94;5027482;28;20065;-61
2022/04/11 04:24:40;;;;;;;13.05;10.43;;;;;;;3.46;68.40;101804.78;5026912;28;20469;-63
2022/04/11 04:27:06;;;;;;;13.27;10.57;;;;;;;3.44;68.20;101806.56;5027978;28;20021;-61
2022/04/11 04:29:32;;;;;;;12.43;10.25;;;;;;;3.43;68.71;101804.88;5027133;28;20024;-61
2022/04/11 04:31:57;;;;;;;13.43;10.25;;;;;;;3.39;68.33;101798.22;5013304;28;20037;-61
2022/04/11 04:34:25;;;;;;;12.38;10.55;;;;;;;3.40;68.03;101799.88;5009070;28;20080;-61
2022/04/11 04:36:50;;;;;;;12.50;10.63;;;;;;;3.38;68.48;101804.22;5005543;28;20034;-61
2022/04/11 04:39:16;;;;;;;13.20;10.63;;;;;;;3.34;68.71;101800.09;5005450;28;20374;-61
2022/04/11 04:41:41;;;;;;;13.63;10.77;;;;;;;3.33;68.74;101793.31;5004255;28;20041;-61
2022/04/11 04:44:07;;;;;;;13.52;11.23;;;;;;;3.31;68.07;101798.47;5006164;28;20458;-61
2022/04/11 04:46:33;;;;;;;12.48;11.18;;;;;;;3.32;68.51;101796.75;5014343;28;20029;-60
2022/04/11 04:48:59;;;;;;;14.98;10.70;;;;;;;3.30;68.59;101798.53;5023927;28;20140;-61
2022/04/11 04:51:24;;;;;;;12.73;10.90;;;;;;;3.26;68.25;101796.97;5025098;28;20434;-61
2022/04/11 04:53:49;;;;;;;13.15;11.05;;;;;;;3.30;68.61;101793.41;5025561;28;20083;-61
2022/04/11 04:56:15;;;;;;;14.40;10.60;;;;;;;3.27;68.31;101785.81;5025682;28;20040;-61
2022/04/11 04:58:40;;;;;;;14.20;11.07;;;;;;;3.25;68.08;101791.00;5025375;28;20378;-61
2022/04/11 05:01:06;;;;;;;13.85;11.60;;;;;;;3.25;68.15;101785.03;5027730;28;20030;-61
2022/04/11 05:03:31;;;;;;;14.15;11.40;;;;;;;3.24;68.31;101788.50;5028871;28;20037;-63
2022/04/11 05:05:56;;;;;;;13.98;10.98;;;;;;;3.19;68.15;101792.06;5029615;28;20033;-61
2022/04/11 05:08:22;;;;;;;12.85;10.80;;;;;;;3.22;68.06;101785.16;5027458;28;20056;-60
2022/04/11 05:10:47;;;;;;;13.30;10.88;;;;;;;3.20;67.94;101783.47;5027846;28;20053;-62
2022/04/11 05:13:13;;;;;;;12.60;11.02;;;;;;;3.22;68.19;101785.16;5029437;28;20017;-61
2022/04/11 05:15:39;;;;;;;13.40;11.32;;;;;;;3.17;68.11;101778.47;5029344;28;20029;-63
2022/04/11 05:18:05;;;;;;;13.27;11.82;;;;;;;3.16;68.42;101776.81;5027783;28;20029;-60
2022/04/11 05:20:30;;;;;;;14.52;11.77;;;;;;;3.15;68.19;101785.38;5028569;28;20041;-60
2022/04/11 05:22:56;;;;;;;13.68;11.45;;;;;;;3.15;68.83;101785.38;5028895;28;20032;-64
2022/04/11 05:25:21;;;;;;;14.18;11.45;;;;;;;3.15;69.13;101782.81;5014725;28;20389;-61
2022/04/11 05:27:47;;;;;;;14.00;11.60;;;;;;;3.14;69.19;101788.81;5011138;28;20046;-64
2022/04/11 05:30:12;;;;;;;13.65;12.00;;;;;;;3.10;68.63;101789.84;5007641;28;20018;-62
2022/04/11 05:32:37;;;;;;;13.85;11.57;;;;;;;3.15;69.17;101787.94;5008162;28;20029;-60
2022/04/11 05:35:03;;;;;;;15.57;11.63;;;;;;;3.17;69.34;101787.88;5008210;28;20109;-61
2022/04/11 05:37:28;;;;;;;13.80;12.30;;;;;;;3.14;69.22;101783.69;5008494;28;20060;-61
2022/04/11 05:39:54;;;;;;;15.68;13.27;;;;;;;3.14;69.10;101781.13;5008545;28;20363;-61
2022/04/11 05:42:19;;;;;;;14.35;12.10;;;;;;;3.15;68.59;101785.38;5009022;28;20022;-66
2022/04/11 05:44:44;;;;;;;13.60;11.55;;;;;;;3.15;68.43;101790.50;5023221;28;20413;-63
2022/04/11 05:47:11;;;;;;;13.65;11.68;;;;;;;3.18;69.16;101794.69;5010341;28;20026;-66
2022/04/11 05:49:38;;;;;;;14.00;11.85;;;;;;;3.14;68.95;101788.81;5007895;28;20104;-62
2022/04/11 05:52:04;;;;;;;14.13;11.68;;;;;;;3.15;68.93;101790.50;5007891;28;20378;-60
2022/04/11 05:54:29;;;;;;;14.52;12.00;;;;;;;3.15;68.71;101780.25;5008511;28;20029;-62
2022/04/11 05:56:55;;;;;;;13.63;11.48;;;;;;;3.17;68.47;101783.59;5009015;28;20095;-63
2022/04/11 05:59:21;;;;;;;15.50;12.05;;;;;;;3.17;68.74;101783.59;5017074;28;20030;-62
2022/04/11 06:01:46;;;;;;;13.45;12.05;;;;;;;3.19;68.50;101776.66;5008522;28;20836;-62
2022/04/11 06:04:12;;;;;;;13.48;11.68;;;;;;;3.19;68.33;101784.38;5008665;28;20026;-65
2022/04/11 06:06:37;;;;;;;13.88;12.10;;;;;;;3.14;68.95;101776.00;5008269;28;20029;-62
2022/04/11 06:09:04;;;;;;;13.40;12.00;;;;;;;3.17;68.86;101791.28;5007734;28;20027;-61
2022/04/11 06:11:29;;;;;;;16.05;12.32;;;;;;;3.15;69.38;101787.94;5007401;28;20269;-61
2022/04/11 06:13:54;;;;;;;14.68;11.93;;;;;;;3.25;69.31;101793.56;5015482;28;20401;-67
2022/04/11 06:16:20;;;;;;;14.25;11.77;;;;;;;3.27;69.53;101790.94;5028080;28;20021;-62
2022/04/11 06:18:45;;;;;;;14.63;12.43;;;;;;;3.26;69.59;101789.28;5020494;28;20029;-62
2022/04/11 06:21:10;;;;;;;16.17;12.60;;;;;;;3.27;69.49;101788.38;5027819;28;20070;-61
2022/04/11 06:23:36;;;;;;;14.35;11.57;;;;;;;3.33;69.41;101789.03;5027971;28;20350;-64
2022/04/11 06:26:01;;;;;;;13.48;12.07;;;;;;;3.36;69.38;101782.94;5027032;28;20423;-61
2022/04/11 06:28:26;;;;;;;13.63;11.98;;;;;;;3.40;69.75;101785.34;5027668;28;20541;-61
2022/04/11 06:30:51;;;;;;;13.80;11.65;;;;;;;3.46;70.09;101789.41;5022816;28;20148;-64
2022/04/11 06:33:18;;;;;;;15.98;12.43;;;;;;;3.54;69.99;101781.41;5007824;28;20426;-62
2022/04/11 06:35:43;;;;;;;14.70;13.05;;;;;;;3.60;70.45;101786.31;5007274;28;20044;-62
2022/04/11 06:38:09;;;;;;;14.65;12.02;;;;;;;3.68;70.32;101784.31;5009339;28;20029;-61
2022/04/11 06:40:34;;;;;;;16.00;13.63;;;;;;;3.69;70.73;101779.13;5006480;28;20037;-64
2022/04/11 06:42:59;;;;;;;14.13;12.65;;;;;;;3.78;70.28;101797.63;5006683;28;20401;-65
2022/04/11 06:45:25;;;;;;;14.63;12.70;;;;;;;3.88;70.20;101788.69;5007745;28;20030;-61
2022/04/11 06:47:50;;;;;;;14.75;12.32;;;;;;;3.98;70.58;101782.31;5011449;28;20052;-64
2022/04/11 06:50:15;;;;;;;15.55;12.65;;;;;;;4.02;70.82;101788.19;5007388;28;20021;-64
2022/04/11 06:52:41;;;;;;;16.90;13.20;;;;;;;4.14;71.12;101800.53;5007818;28;20108;-61
2022/04/11 06:55:07;;;;;;;14.80;13.30;;;;;;;4.22;70.83;101801.88;5007834;28;20037;-62
2022/04/11 06:57:32;;;;;;;15.70;13.35;;;;;;;4.30;70.92;101793.03;5007451;28;20057;-62
2022/04/11 06:59:57;;;;;;;14.35;12.85;;;;;;;4.42;70.67;101802.84;5007329;28;20026;-65
2022/04/11 07:02:23;;;;;;;14.93;12.77;;;;;;;4.54;70.45;101804.91;5007736;28;20034;-61
2022/04/11 07:04:48;;;;;;;14.25;12.80;;;;;;;4.61;69.86;101803.75;5007542;28;20026;-60
2022/04/11 07:07:13;;;;;;;16.05;13.35;;;;;;;4.76;70.71;101803.13;5005919;28;20033;-61
2022/04/11 07:09:39;;;;;;;13.48;12.15;;;;;;;4.80;69.64;101802.09;5005623;28;20027;-64
2022/04/11 07:12:05;;;;;;;15.45;13.10;;;;;;;4.90;70.07;101805.13;5007482;28;20521;-62
2022/04/11 07:14:30;;;;;;;14.75;12.50;;;;;;;4.97;69.38;101808.25;5007143;28;20355;-62
2022/04/11 07:16:56;;;;;;;14.10;12.70;;;;;;;5.08;69.23;101795.78;5015044;28;20108;-65
2022/04/11 07:19:21;;;;;;;13.90;12.45;;;;;;;5.19;69.01;101801.31;5026320;28;20037;-62
2022/04/11 07:21:47;;;;;;;14.13;12.57;;;;;;;5.22;68.48;101796.03;5027155;28;20037;-62
2022/04/11 07:24:13;;;;;;;13.63;12.20;;;;;;;5.35;68.87;101792.91;5026279;28;20029;-63
2022/04/11 07:26:40;;;;;;;16.40;12.18;;;;;;;5.41;68.17;101790.06;5027177;28;20036;-62
2022/04/11 07:29:06;;;;;;;13.88;12.35;;;;;;;5.58;68.59;101797.88;5027150;28;20029;-63
2022/04/11 07:31:32;;;;;;;16.02;12.55;;;;;;;5.66;68.74;101785.47;5026219;28;20056;-62
2022/04/11 07:33:57;;;;;;;13.75;12.23;;;;;;;5.75;68.04;101785.06;5025100;28;20029;-61
2022/04/11 07:36:22;;;;;;;14.32;11.93;;;;;;;5.84;67.56;101778.66;5024172;28;20460;-62
2022/04/11 07:38:48;;;;;;;14.25;12.85;;;;;;;5.96;68.66;101774.69;5010930;28;20065;-62
2022/04/11 07:41:13;;;;;;;14.10;12.38;;;;;;;6.06;69.20;101773.38;5005360;28;20049;-61
2022/04/11 07:43:38;;;;;;;13.35;11.82;;;;;;;6.10;67.83;101780.03;5005517;28;20054;-64
2022/04/11 07:46:07;;;;;;;13.48;12.05;;;;;;;6.17;68.02;101765.97;5005768;28;20072;-61
2022/04/11 07:48:32;;;;;;;13.00;11.65;;;;;;;6.25;67.67;101769.03;5004727;28;20057;-62
2022/04/11 07:50:58;;;;;;;12.82;11.35;;;;;;;6.29;67.60;101760.22;5005167;28;20127;-62
2022/04/11 07:53:23;;;;;;;13.77;11.77;;;;;;;6.47;68.66;101770.53;5005324;28;20386;-64
2022/04/11 07:55:49;;;;;;;14.52;11.60;;;;;;;6.55;68.30;101758.94;5005404;28;20101;-61
2022/04/11 07:58:15;;;;;;;13.70;11.57;;;;;;;6.62;67.31;101762.03;5005063;28;20022;-68
2022/04/11 08:00:41;;;;;;;13.10;10.95;;;;;;;6.72;66.70;101762.44;5007763;28;20113;-61
2022/04/11 08:03:07;;;;;;;13.88;11.18;;;;;;;6.86;67.34;101776.28;5005078;28;20537;-61
2022/04/11 08:05:32;;;;;;;12.55;11.02;;;;;;;6.96;67.06;101762.91;5007666;28;20040;-62
2022/04/11 08:07:58;;;;;;;13.88;11.15;;;;;;;7.00;67.36;101757.53;5005677;28;20502;-66
2022/04/11 08:10:23;;;;;;;12.93;11.05;;;;;;;7.14;67.28;101760.22;5005235;28;20030;-66
2022/04/11 08:12:55;;;;;;;13.27;11.05;;;;;;;7.19;66.68;101752.25;5005302;28;20565;-61
2022/04/11 08:15:21;;;;;;;13.40;11.43;;;;;;;7.35;67.89;101747.94;5005023;28;20487;-61
2022/04/11 08:17:47;;;;;;;13.38;11.68;;;;;;;7.39;67.15;101757.16;5006503;28;20022;-60
2022/04/11 08:20:12;;;;;;;12.57;11.25;;;;;;;7.45;67.65;101754.28;5005275;28;20029;-62
2022/04/11 08:22:37;;;;;;;12.65;10.88;;;;;;;7.56;67.49;101750.25;5022202;28;20021;-61
2022/04/11 08:25:03;;;;;;;13.38;11.13;;;;;;;7.62;67.28;101734.44;5025852;28;20033;-61
2022/04/11 08:27:28;;;;;;;13.60;11.48;;;;;;;7.80;66.88;101733.44;5008954;28;20119;-61
2022/04/11 08:29:53;;;;;;;12.90;11.50;;;;;;;7.90;66.80;101744.09;5005882;28;20057;-61
2022/04/11 08:32:19;;;;;;;13.60;11.80;;;;;;;7.99;66.70;101728.91;5005730;28;20042;-67
2022/04/11 08:34:45;;;;;;;13.98;11.10;;;;;;;8.10;66.72;101733.47;5005869;28;20029;-62
2022/04/11 08:37:10;;;;;;;13.82;11.20;;;;;;;8.13;66.46;101733.28;5006231;28;20469;-61
2022/04/11 08:39:35;;;;;;;12.18;10.98;;;;;;;8.30;66.59;101734.91;5005189;28;20046;-63
2022/04/11 08:42:01;;;;;;;11.75;10.55;;;;;;;8.39;65.65;101737.00;5006112;28;20390;-61
2022/04/11 08:44:27;;;;;;;12.15;10.18;;;;;;;8.50;64.25;101729.47;5005583;28;20029;-61
2022/04/11 08:46:57;;;;;;;13.05;10.30;;;;;;;8.65;65.08;101732.06;5016772;28;20072;-63
2022/04/11 08:49:23;;;;;;;12.23;9.02;;;;;;;8.78;63.62;101731.25;5018906;28;20430;-62
2022/04/11 08:51:48;;;;;;;11.23;9.15;;;;;;;8.85;63.08;101729.13;5020152;28;20022;-61
2022/04/11 08:54:15;;;;;;;10.43;8.07;;;;;;;8.95;60.87;101725.09;5005065;28;20465;-66
2022/04/11 08:56:40;;;;;;;11.18;8.77;;;;;;;9.05;60.81;101725.34;5005455;28;20116;-62
2022/04/11 08:59:06;;;;;;;10.45;8.40;;;;;;;9.15;60.38;101723.84;5005004;28;20029;-68
2022/04/11 09:01:33;;;;;;;11.95;9.85;;;;;;;9.28;62.68;101716.16;5006916;28;20058;-64
2022/04/11 09:03:58;;;;;;;10.50;9.13;;;;;;;9.29;62.61;101707.50;5037749;28;20186;-62
2022/04/11 09:06:24;;;;;;;10.43;8.43;;;;;;;9.53;61.92;101721.50;5039110;28;20473;-63
2022/04/11 09:08:54;;;;;;;13.10;8.52;;;;;;;9.57;61.65;101716.94;5006075;28;20022;-62
2022/04/11 09:11:46;;;;;;;11.60;8.43;;;;;;;9.68;62.23;101719.69;5005384;28;20026;-64
2022/04/11 09:14:12;;;;;;;12.52;8.98;;;;;;;9.79;61.23;101721.59;5005968;28;20046;-61
2022/04/11 09:16:51;;;;;;;10.50;8.35;;;;;;;9.90;61.32;101721.72;5011025;28;20032;-61
2022/04/11 09:19:25;;;;;;;11.52;8.40;;;;;;;10.01;59.81;101727.06;5025356;28;20465;-61
2022/04/11 09:21:54;;;;;;;10.15;7.97;;;;;;;10.18;59.62;101722.53;5025286;28;20312;-61
2022/04/11 09:24:21;;;;;;;11.05;7.70;;;;;;;10.23;58.64;101723.06;5025009;28;20503;-67
2022/04/11 09:26:47;;;;;;;10.27;7.43;;;;;;;10.25;57.43;101729.00;5010869;28;20026;-63
2022/04/11 09:29:15;;;;;;;11.77;7.20;;;;;;;10.31;57.52;101723.41;5007586;28;20018;-61
2022/04/11 09:31:41;;;;;;;10.18;6.82;;;;;;;10.32;57.41;101720.75;5006195;28;20461;-62
2022/04/11 09:34:16;;;;;;;10.43;7.10;;;;;;;10.43;58.68;101712.22;5004994;28;20025;-64
2022/04/11 09:36:53;;;;;;;9.20;7.15;;;;;;;10.44;56.99;101706.13;5007253;28;20033;-67
2022/04/11 09:39:23;;;;;;;10.70;7.20;;;;;;;10.63;56.81;101705.72;5004653;28;20070;-62
2022/04/11 09:41:50;;;;;;;9.80;6.07;;;;;;;10.63;54.95;101700.53;5004319;28;20083;-64
2022/04/11 09:44:27;;;;;;;9.18;6.50;;;;;;;10.74;56.70;101700.63;5004156;28;20037;-61
2022/04/11 09:46:58;;;;;;;10.35;6.25;;;;;;;10.87;55.28;101690.22;5009250;28;20499;-61
2022/04/11 09:49:24;;;;;;;9.48;5.57;;;;;;;10.96;54.78;101693.97;5008765;28;20022;-63
2022/04/11 09:52:01;;;;;;;8.40;5.47;;;;;;;11.00;54.85;101683.25;5009136;28;20072;-61
2022/04/11 09:54:27;;;;;;;9.63;5.72;;;;;;;10.95;52.16;101698.31;5009173;28;20034;-61
2022/04/11 09:56:54;;;;;;;7.47;4.97;;;;;;;11.12;53.68;101695.34;5008984;28;20030;-63
2022/04/11 09:59:22;;;;;;;9.02;5.00;;;;;;;11.14;52.89;101693.50;5008195;28;20391;-67
2022/04/11 10:01:48;;;;;;;8.43;5.35;;;;;;;11.22;52.56;101681.75;5027582;28;20025;-63
2022/04/11 10:04:14;;;;;;;7.82;4.53;;;;;;;11.22;50.89;101673.94;5027087;28;20033;-63
2022/04/11 10:06:39;;;;;;;8.77;4.75;;;;;;;11.36;51.78;101682.44;5028417;28;20033;-64
2022/04/11 10:09:04;;;;;;;9.10;4.57;;;;;;;11.40;50.36;101677.84;5028452;28;20033;-62
2022/04/11 10:11:30;;;;;;;6.90;3.90;;;;;;;11.45;49.52;101680.94;5028028;28;20032;-62
2022/04/11 10:13:56;;;;;;;7.30;4.10;;;;;;;11.50;50.78;101668.44;5028179;28;20405;-61
2022/04/11 10:16:23;;;;;;;7.90;4.20;;;;;;;11.57;48.93;101674.84;5059820;28;20531;-61
2022/04/11 10:18:48;;;;;;;7.82;3.80;;;;;;;11.49;46.43;101664.19;5027417;28;20414;-62
2022/04/11 10:21:15;;;;;;;7.95;4.07;;;;;;;11.62;49.53;101677.94;5026866;28;20064;-63
2022/04/11 10:23:45;;;;;;;6.47;4.20;;;;;;;11.65;49.40;101672.56;5026604;28;20044;-62
2022/04/11 10:26:18;;;;;;;6.97;4.13;;;;;;;11.69;47.93;101671.38;5028232;28;20534;-61
2022/04/11 10:28:48;;;;;;;6.90;4.05;;;;;;;11.78;47.72;101666.47;5027661;28;20025;-61
2022/04/11 10:31:15;;;;;;;7.40;3.90;;;;;;;11.81;45.53;101666.22;5027086;28;20104;-61
2022/04/11 10:33:47;;;;;;;6.72;4.22;;;;;;;11.94;47.30;101661.81;5027160;28;20029;-61
2022/04/11 10:36:41;;;;;;;7.72;4.28;;;;;;;12.05;49.41;101663.63;5026968;28;20485;-66
2022/04/11 10:39:12;;;;;;;8.68;4.70;;;;;;;12.08;46.69;101653.81;5007322;28;20046;-66
2022/04/11 10:41:56;;;;;;;8.63;4.43;;;;;;;12.20;47.96;101655.50;5009539;28;20148;-60
2022/04/11 10:44:46;;;;;;;7.60;4.80;;;;;;;12.36;47.00;101656.94;5047396;28;20466;-61
2022/04/11 10:47:12;;;;;;;8.15;4.65;;;;;;;12.36;43.79;101656.94;5033549;28;20500;-62
2022/04/11 10:49:57;;;;;;;7.93;4.20;;;;;;;12.38;45.33;101655.03;5027160;28;20025;-62
2022/04/11 10:52:36;;;;;;;7.45;4.00;;;;;;;12.38;44.85;101649.84;5007703;28;20128;-64
2022/04/11 10:55:17;;;;;;;;;;;;;;;12.50;47.01;101646.28;5037511;28;20029;-61
2022/04/11 10:57:44;;;;;;;8.68;4.10;;;;;;;12.43;42.37;101652.91;5019403;28;19923;-61
2022/04/11 11:00:14;;;;;;;8.75;3.85;;;;;;;12.38;43.05;101639.44;5027174;28;20037;-61
2022/04/11 11:02:52;;;;;;;9.50;3.85;;;;;;;12.50;45.02;101638.50;5059005;28;20129;-64
2022/04/11 11:05:44;;;;;;;7.15;3.50;;;;;;;12.56;43.95;101638.06;5017486;28;20026;-62
2022/04/11 11:08:09;;;;;;;8.77;4.03;;;;;;;12.59;43.31;101637.81;5020251;28;20488;-62
2022/04/11 11:10:59;;;;;;;7.43;3.92;;;;;;;12.60;42.58;101623.84;5026263;28;20025;-62
2022/04/11 11:13:39;;;;;;;8.38;3.78;;;;;;;12.74;43.90;101610.59;5040769;28;20073;-63
2022/04/11 11:16:07;;;;;;;6.32;3.42;;;;;;;12.79;41.67;101614.59;5027797;28;20036;-63
2022/04/11 11:18:51;;;;;;;8.55;4.70;;;;;;;12.91;44.19;101608.44;5044837;28;20733;-63
2022/04/11 11:24:02;;;;;;;8.52;4.03;;;;;;;12.83;41.92;101597.78;5025647;28;20057;-76